^^
Grace C. Lehan Memorial Weather Station Historical Data
Daily Summary for October 3, 2021 Units:  Metric    English   Both
Daily Weekly Monthly Yearly
  High: Low: Average:
Temperature: 23.7 °C 12.8 °C 18.6 °C
Dew Point: 18.4 °C 11.7 °C 15.3 °C
Humidity: 94% 62.3% 82%
Wind Speed: 0.6km/h 0km/h 0km/h
Wind Gust: 8km/h - -
Wind- - SW
Pressure: 1015.5 hPa 1011.7 hPa -
Precipitation: 1.02 mm    
 
 
Tabular Data for October 3, 2021
Time Temperature Dew Point Pressure Wind Wind Speed Wind Gust Humidity Rainfall Rate (Hourly) solar
00:09 16.7 °C 13.4 °C 1015.5 hPa Calm     81.2% 0 mm 0 W/m2
00:14 16.6 °C 13.4 °C 1015.5 hPa Calm     82% 0 mm 0 W/m2
00:19 16.4 °C 13.4 °C 1015.5 hPa Calm     82% 0 mm 0 W/m2
00:24 16.3 °C 13.4 °C 1015.5 hPa Calm     82.5% 0 mm 0 W/m2
00:29 16.3 °C 13.4 °C 1015.5 hPa Calm     83% 0 mm 0 W/m2
00:34 16.2 °C 13.3 °C 1015.5 hPa Calm     83% 0 mm 0 W/m2
00:39 16.1 °C 13.2 °C 1015.5 hPa Calm     83% 0 mm 0 W/m2
00:44 16 °C 13.2 °C 1015.5 hPa Calm     83.6% 0 mm 0 W/m2
00:49 15.9 °C 13.2 °C 1015.5 hPa Calm     84% 0 mm 0 W/m2
00:54 15.8 °C 13.1 °C 1015.5 hPa Calm     84% 0 mm 0 W/m2
00:59 15.8 °C 13.1 °C 1015.1 hPa Calm     84.3% 0 mm 0 W/m2
01:04 15.7 °C 13.2 °C 1015.1 hPa Calm     85% 0 mm 0 W/m2
01:09 15.6 °C 13.1 °C 1015.1 hPa Calm     85% 0 mm 0 W/m2
01:14 15.6 °C 13.1 °C 1015.1 hPa Calm     85% 0 mm 0 W/m2
01:19 15.6 °C 13.2 °C 1015.1 hPa Calm     85.7% 0 mm 0 W/m2
01:24 15.6 °C 13.2 °C 1015.1 hPa Calm     86% 0 mm 0 W/m2
01:29 15.6 °C 13.2 °C 1015.1 hPa Calm     85.8% 0 mm 0 W/m2
01:34 15.6 °C 13.1 °C 1015.1 hPa Calm     85% 0 mm 0 W/m2
01:39 15.7 °C 13.3 °C 1015.1 hPa Calm     85.7% 0 mm 0 W/m2
01:44 15.7 °C 13.3 °C 1015.1 hPa Calm   3.2 km/h 86% 0 mm 0 W/m2
01:49 15.8 °C 13.4 °C 1015.1 hPa WNW 0.6 km/h 8 km/h 85.8% 0 mm 0 W/m2
01:54 15.8 °C 13.3 °C 1015.1 hPa Calm   8 km/h 85% 0 mm 0 W/m2
01:59 15.8 °C 13.2 °C 1014.8 hPa Calm   8 km/h 84.2% 0 mm 0 W/m2
02:04 15.8 °C 13.2 °C 1014.8 hPa Calm   8 km/h 84% 0 mm 0 W/m2
02:09 15.8 °C 13.1 °C 1014.8 hPa Calm     84% 0 mm 0 W/m2
02:14 15.8 °C 13.2 °C 1015.1 hPa Calm     84.8% 0 mm 0 W/m2
02:19 15.8 °C 13.3 °C 1015.1 hPa Calm     85% 0 mm 0 W/m2
02:24 15.8 °C 13.3 °C 1015.1 hPa Calm     85% 0 mm 0 W/m2
02:29 15.7 °C 13.1 °C 1015.1 hPa Calm     84.3% 0 mm 0 W/m2
02:34 15.7 °C 13.2 °C 1015.1 hPa Calm   1.6 km/h 85% 0 mm 0 W/m2
02:39 15.6 °C 13.1 °C 1015.1 hPa Calm   1.6 km/h 85% 0 mm 0 W/m2
02:44 15.6 °C 13.1 °C 1015.1 hPa Calm   1.6 km/h 85% 0 mm 0 W/m2
02:49 15.6 °C 13.2 °C 1014.8 hPa Calm   1.6 km/h 85.6% 0 mm 0 W/m2
02:54 15.6 °C 13.1 °C 1014.8 hPa Calm   1.6 km/h 85% 0 mm 0 W/m2
02:59 15.6 °C 13.1 °C 1014.8 hPa Calm   1.6 km/h 85% 0 mm 0 W/m2
03:04 15.5 °C 13 °C 1014.8 hPa Calm   1.6 km/h 85% 0 mm 0 W/m2
03:09 15.4 °C 13.1 °C 1014.8 hPa Calm     85.7% 0 mm 0 W/m2
03:14 15.4 °C 13.1 °C 1014.8 hPa Calm     86% 0 mm 0 W/m2
03:19 15.3 °C 13 °C 1014.4 hPa Calm     86% 0 mm 0 W/m2
03:24 15.2 °C 12.9 °C 1014.4 hPa Calm     86.1% 0 mm 0 W/m2
03:29 15.1 °C 12.9 °C 1014.4 hPa Calm     87% 0 mm 0 W/m2
03:34 15 °C 13 °C 1014.4 hPa Calm     87.7% 0 mm 0 W/m2
03:39 14.9 °C 12.8 °C 1014.4 hPa Calm     87% 0 mm 0 W/m2
03:44 14.8 °C 12.8 °C 1014.4 hPa Calm     87.7% 0 mm 0 W/m2
03:49 14.8 °C 12.8 °C 1014.4 hPa Calm     88% 0 mm 0 W/m2
03:54 14.8 °C 12.8 °C 1014.4 hPa Calm     88% 0 mm 0 W/m2
03:59 14.7 °C 12.8 °C 1014.4 hPa Calm     88% 0 mm 0 W/m2
04:00 14.7 °C 12.7 °C 1014.4 hPa Calm     88% 0 mm 0 W/m2
04:09 14.6 °C 12.6 °C 1014.4 hPa Calm     88% 0 mm 0 W/m2
04:14 14.6 °C 12.6 °C 1014.4 hPa Calm     88.3% 0 mm 0 W/m2
04:19 14.5 °C 12.7 °C 1014.1 hPa Calm     89% 0 mm 0 W/m2
04:24 14.4 °C 12.7 °C 1014.1 hPa Calm     89% 0 mm 0 W/m2
04:29 14.4 °C 12.6 °C 1014.1 hPa Calm     89% 0 mm 0 W/m2
04:34 14.3 °C 12.6 °C 1014.1 hPa Calm     89% 0 mm 0 W/m2
04:39 14.3 °C 12.5 °C 1014.1 hPa Calm     89% 0 mm 0 W/m2
04:44 14.2 °C 12.4 °C 1014.1 hPa Calm     89% 0 mm 0 W/m2
04:49 14.2 °C 12.4 °C 1014.1 hPa Calm     89% 0 mm 0 W/m2
04:54 14.1 °C 12.4 °C 1014.1 hPa Calm     89.8% 0 mm 0 W/m2
04:59 14.1 °C 12.4 °C 1014.1 hPa Calm     90% 0 mm 0 W/m2
05:04 13.9 °C 12.3 °C 1014.1 hPa Calm     90% 0 mm 0 W/m2
05:09 13.9 °C 12.3 °C 1014.1 hPa Calm     90% 0 mm 0 W/m2
05:14 13.8 °C 12.2 °C 1014.1 hPa Calm     90% 0 mm 0 W/m2
05:19 13.7 °C 12.1 °C 1014.1 hPa Calm     90% 0 mm 0 W/m2
05:24 13.7 °C 12.1 °C 1014.1 hPa Calm     90% 0 mm 0 W/m2
05:29 13.6 °C 12.2 °C 1014.1 hPa Calm     91% 0 mm 0 W/m2
05:34 13.6 °C 12.2 °C 1014.1 hPa Calm     91% 0 mm 0 W/m2
05:39 13.6 °C 12.1 °C 1014.1 hPa Calm     91% 0 mm 0 W/m2
05:44 13.5 °C 12.1 °C 1014.1 hPa Calm     91% 0 mm 0 W/m2
05:49 13.4 °C 12.1 °C 1014.1 hPa Calm     91% 0 mm 0 W/m2
05:54 13.4 °C 12 °C 1014.1 hPa Calm     91% 0 mm 0 W/m2
05:59 13.4 °C 12.1 °C 1014.1 hPa Calm     92% 0 mm 0 W/m2
06:04 13.4 °C 12.1 °C 1014.1 hPa Calm     92% 0 mm 0 W/m2
06:09 13.3 °C 12.1 °C 1014.1 hPa Calm     92% 0 mm 0 W/m2
06:14 13.3 °C 12.1 °C 1014.1 hPa Calm     92% 0 mm 0 W/m2
06:19 13.3 °C 12 °C 1013.8 hPa Calm     92% 0 mm 0 W/m2
06:24 13.3 °C 12 °C 1014.1 hPa Calm     92% 0 mm 0 W/m2
06:29 13.2 °C 11.9 °C 1014.1 hPa Calm     92% 0 mm 0 W/m2
06:34 13.1 °C 11.9 °C 1014.1 hPa Calm     92% 0 mm 0 W/m2
06:39 13.1 °C 11.8 °C 1014.1 hPa Calm     92% 0 mm 0 W/m2
06:44 13.1 °C 11.8 °C 1014.1 hPa Calm     92.4% 0 mm 0 W/m2
06:49 13.1 °C 11.9 °C 1014.1 hPa Calm     93% 0 mm 0 W/m2
06:54 13 °C 11.9 °C 1014.1 hPa Calm     93% 0 mm 5 W/m2
06:59 12.9 °C 11.8 °C 1014.4 hPa Calm     93% 0 mm 9 W/m2
07:04 12.9 °C 11.8 °C 1014.1 hPa Calm     93% 0 mm 11 W/m2
07:09 12.9 °C 11.8 °C 1014.1 hPa Calm     93% 0 mm 11 W/m2
07:14 12.8 °C 11.8 °C 1014.1 hPa Calm     93% 0 mm 11 W/m2
07:19 12.8 °C 11.7 °C 1014.4 hPa Calm     93% 0 mm 14 W/m2
07:24 12.8 °C 11.7 °C 1014.4 hPa Calm     93% 0 mm 16 W/m2
07:29 12.8 °C 11.7 °C 1014.4 hPa Calm     93% 0 mm 18 W/m2
07:34 12.8 °C 11.7 °C 1014.1 hPa Calm     93% 0 mm 18 W/m2
07:39 12.9 °C 11.8 °C 1014.1 hPa Calm     93.3% 0 mm 23 W/m2
07:44 12.9 °C 12 °C 1014.1 hPa Calm     94% 0 mm 26 W/m2
07:49 13 °C 12.1 °C 1014.1 hPa Calm     94% 0 mm 26 W/m2
07:54 13.1 °C 12.2 °C 1014.1 hPa Calm     94% 0 mm 26 W/m2
07:59 13.2 °C 12.2 °C 1014.1 hPa Calm     94% 0 mm 32 W/m2
08:00 13.2 °C 12.3 °C 1014.1 hPa Calm     94% 0 mm 32 W/m2
08:09 13.5 °C 12.6 °C 1014.1 hPa Calm     94% 0 mm 35 W/m2
08:14 13.6 °C 12.7 °C 1014.1 hPa Calm     94% 0 mm 28 W/m2
08:19 13.8 °C 12.8 °C 1014.1 hPa Calm     94% 0 mm 30 W/m2
08:24 13.9 °C 13 °C 1014.1 hPa Calm     94% 0 mm 32 W/m2
08:29 14.1 °C 13.2 °C 1014.1 hPa Calm     94% 0 mm 33 W/m2
08:34 14.3 °C 13.3 °C 1014.1 hPa Calm     94% 0 mm 40 W/m2
08:39 14.4 °C 13.5 °C 1014.1 hPa Calm     94% 0 mm 81 W/m2
08:44 14.7 °C 13.7 °C 1014.4 hPa Calm     94% 0 mm 141 W/m2
08:49 15 °C 14.1 °C 1014.1 hPa Calm     94% 0 mm 186 W/m2
08:54 15.4 °C 14.3 °C 1014.1 hPa Calm     92.7% 0 mm 186 W/m2
08:59 15.9 °C 14.4 °C 1014.4 hPa WNW 0.2 km/h 3.2 km/h 91.1% 0 mm 179 W/m2
09:04 16.3 °C 14.6 °C 1014.1 hPa Calm   3.2 km/h 89.4% 0 mm 118 W/m2
09:09 16.7 °C 14.7 °C 1014.4 hPa Calm     87.8% 0 mm 181 W/m2
09:14 17.1 °C 15 °C 1014.4 hPa Calm     87.5% 0 mm 229 W/m2
09:19 17.4 °C 15.1 °C 1014.4 hPa Calm     85.9% 0 mm 186 W/m2
09:24 17.7 °C 14.9 °C 1014.4 hPa Calm     83.7% 0 mm 255 W/m2
09:29 18.1 °C 15.3 °C 1014.1 hPa Calm     83.8% 0 mm 385 W/m2
09:34 18.5 °C 15.5 °C 1014.1 hPa Calm     82.9% 0 mm 236 W/m2
09:39 18.8 °C 15.6 °C 1014.4 hPa Calm     81.4% 0 mm 304 W/m2
09:44 19.1 °C 15.8 °C 1014.4 hPa Calm     80.8% 0 mm 594 W/m2
09:49 19.4 °C 15.9 °C 1014.4 hPa Calm     79.9% 0 mm 594 W/m2
09:54 19.8 °C 15.8 °C 1014.1 hPa Calm     77.6% 0 mm 570 W/m2
09:59 20.3 °C 15.9 °C 1014.1 hPa Calm     76.1% 0 mm 629 W/m2
10:04 21 °C 16.2 °C 1014.4 hPa Calm     74.1% 0 mm 629 W/m2
10:09 21.4 °C 15.9 °C 1014.4 hPa Calm     70.8% 0 mm 568 W/m2
10:14 21.8 °C 15.9 °C 1014.1 hPa Calm     69.5% 0 mm 599 W/m2
10:19 22.2 °C 16.2 °C 1014.4 hPa Calm   1.6 km/h 68.8% 0 mm 610 W/m2
10:24 22.6 °C 16.4 °C 1014.4 hPa Calm   1.6 km/h 68.5% 0 mm 325 W/m2
10:29 22.8 °C 16.2 °C 1014.4 hPa Calm   1.6 km/h 66.4% 0 mm 628 W/m2
10:34 22.9 °C 16.2 °C 1014.4 hPa Calm   1.6 km/h 66% 0 mm 406 W/m2
10:39 23.1 °C 16.2 °C 1014.4 hPa Calm     65.3% 0 mm 406 W/m2
10:44 23.1 °C 16.2 °C 1014.1 hPa Calm     65.2% 0 mm 652 W/m2
10:49 23.2 °C 16.5 °C 1014.1 hPa Calm     65.9% 0 mm 652 W/m2
10:54 23.3 °C 16.5 °C 1014.1 hPa NNW 0.2 km/h 3.2 km/h 65.6% 0 mm 689 W/m2
10:59 23.3 °C 16 °C 1014.1 hPa North 0.2 km/h 3.2 km/h 63.4% 0 mm 810 W/m2
11:04 23.4 °C 16.6 °C 1014.1 hPa Calm   3.2 km/h 65.2% 0 mm 789 W/m2
11:09 23.6 °C 16.3 °C 1014.1 hPa Calm     63.5% 0 mm 281 W/m2
11:14 23.5 °C 15.9 °C 1013.8 hPa Calm     62.3% 0 mm 236 W/m2
11:19 23.3 °C 16.1 °C 1013.8 hPa Calm     63.8% 0 mm 195 W/m2
11:24 23.2 °C 16.2 °C 1013.8 hPa Calm     64.7% 0 mm 160 W/m2
11:29 22.9 °C 15.9 °C 1013.8 hPa Calm     64.4% 0 mm 176 W/m2
11:34 22.8 °C 15.9 °C 1013.8 hPa Calm     65.3% 0 mm 190 W/m2
11:39 22.7 °C 15.8 °C 1013.8 hPa Calm     65.2% 0 mm 183 W/m2
11:44 22.6 °C 15.7 °C 1013.8 hPa Calm     65% 0 mm 165 W/m2
11:49 22.5 °C 15.8 °C 1013.8 hPa Calm     66.1% 0 mm 139 W/m2
11:54 22.4 °C 15.6 °C 1013.8 hPa Calm     65.5% 0 mm 130 W/m2
11:59 22.3 °C 15.9 °C 1013.8 hPa Calm     67.3% 0 mm 120 W/m2
12:00 22.3 °C 16.1 °C 1013.8 hPa Calm     68% 0 mm 120 W/m2
12:09 22.1 °C 16.1 °C 1013.4 hPa Calm     68.5% 0 mm 162 W/m2
12:14 22.1 °C 15.9 °C 1013.4 hPa Calm     68.2% 0 mm 234 W/m2
12:19 22 °C 15.8 °C 1013.4 hPa Calm     68% 0 mm 250 W/m2
12:24 22.1 °C 15.8 °C 1013.4 hPa Calm     67.7% 0 mm 281 W/m2
12:29 22.2 °C 15.9 °C 1013.4 hPa Calm     67.6% 0 mm 283 W/m2
12:34 22.3 °C 16.4 °C 1013.4 hPa Calm     69.2% 0 mm 216 W/m2
12:39 22.4 °C 16.4 °C 1013.4 hPa Calm     68.7% 0 mm 162 W/m2
12:44 22.5 °C 16.6 °C 1013.4 hPa Calm     69.4% 0 mm 144 W/m2
12:49 22.5 °C 16.4 °C 1013.4 hPa Calm     68.5% 0 mm 134 W/m2
12:54 22.4 °C 16.4 °C 1013.4 hPa Calm     68.7% 0 mm 135 W/m2
12:59 22.4 °C 16.2 °C 1013.1 hPa Calm     67.8% 0 mm 155 W/m2
13:04 22.5 °C 16.6 °C 1013.1 hPa Calm     69.3% 0 mm 171 W/m2
13:09 22.6 °C 16.6 °C 1013.1 hPa Calm     68.9% 0 mm 171 W/m2
13:14 22.6 °C 16.4 °C 1013.1 hPa Calm     68.3% 0 mm 195 W/m2
13:19 22.7 °C 16.2 °C 1013.1 hPa Calm     66.8% 0 mm 211 W/m2
13:24 22.7 °C 16.5 °C 1012.8 hPa Calm     67.9% 0 mm 239 W/m2
13:29 22.8 °C 16.5 °C 1012.8 hPa Calm     67.6% 0 mm 241 W/m2
13:34 22.9 °C 16.4 °C 1012.8 hPa Calm   1.6 km/h 67.2% 0 mm 237 W/m2
13:39 22.9 °C 16.2 °C 1012.8 hPa Calm   1.6 km/h 66% 0 mm 237 W/m2
13:44 22.9 °C 16.2 °C 1012.8 hPa Calm   1.6 km/h 65.9% 0 mm 151 W/m2
13:49 22.9 °C 16.1 °C 1012.8 hPa Calm   1.6 km/h 65.4% 0 mm 148 W/m2
13:54 22.8 °C 16.2 °C 1012.8 hPa Calm   1.6 km/h 66% 0 mm 190 W/m2
13:59 22.8 °C 15.9 °C 1012.4 hPa Calm   1.6 km/h 65% 0 mm 197 W/m2
14:04 22.9 °C 16.2 °C 1012.4 hPa Calm   1.6 km/h 65.8% 0 mm 211 W/m2
14:09 22.9 °C 16.6 °C 1012.4 hPa Calm     67.3% 0 mm 211 W/m2
14:14 23.1 °C 16.9 °C 1012.4 hPa Calm     68.5% 0 mm 178 W/m2
14:19 23.1 °C 16.8 °C 1012.4 hPa Calm     68.1% 0 mm 135 W/m2
14:24 23.1 °C 16.5 °C 1012.1 hPa Calm     66.6% 0 mm 135 W/m2
14:29 23.1 °C 16.8 °C 1012.4 hPa Calm     67.7% 0 mm 105 W/m2
14:34 23.1 °C 16.7 °C 1012.4 hPa Calm     67.3% 0 mm 158 W/m2
14:39 23.1 °C 16.9 °C 1012.4 hPa Calm     68.1% 0 mm 179 W/m2
14:44 23.1 °C 16.6 °C 1012.1 hPa Calm     66.9% 0 mm 200 W/m2
14:49 23.1 °C 16.9 °C 1012.1 hPa Calm     68.2% 0 mm 251 W/m2
14:54 23.2 °C 16.8 °C 1012.1 hPa Calm     67.2% 0 mm 239 W/m2
14:59 23.3 °C 16.5 °C 1012.1 hPa Calm     65.6% 0 mm 243 W/m2
15:04 23.3 °C 16.8 °C 1012.1 hPa Calm     66.9% 0 mm 220 W/m2
15:09 23.3 °C 16.8 °C 1012.1 hPa Calm     66.7% 0 mm 213 W/m2
15:14 23.4 °C 16.7 °C 1012.1 hPa Calm     66.2% 0 mm 199 W/m2
15:19 23.4 °C 17 °C 1012.1 hPa Calm     67.1% 0 mm 190 W/m2
15:24 23.6 °C 16.9 °C 1011.7 hPa Calm     66.6% 0 mm 167 W/m2
15:29 23.6 °C 16.6 °C 1011.7 hPa Calm     65% 0 mm 141 W/m2
15:34 23.6 °C 17.1 °C 1011.7 hPa Calm     67.1% 0 mm 121 W/m2
15:39 23.6 °C 17.2 °C 1011.7 hPa Calm     67.3% 0 mm 120 W/m2
15:44 23.7 °C 17.2 °C 1011.7 hPa Calm     67.3% 0 mm 105 W/m2
15:49 23.7 °C 17.3 °C 1012.1 hPa Calm     67.5% 0 mm 84 W/m2
15:54 23.7 °C 17.3 °C 1012.1 hPa Calm     67.5% 0 mm 67 W/m2
15:59 23.6 °C 17.5 °C 1011.7 hPa Calm     68.6% 0 mm 67 W/m2
16:04 23.4 °C 17.4 °C 1011.7 hPa Calm     69% 0 mm 40 W/m2
16:09 23.4 °C 17.5 °C 1011.7 hPa Calm     69.6% 0 mm 46 W/m2
16:14 23.3 °C 17.7 °C 1011.7 hPa Calm     70.5% 0 mm 47 W/m2
16:19 23.3 °C 17.7 °C 1011.7 hPa Calm     71% 0 mm 47 W/m2
16:24 23.2 °C 17.6 °C 1011.7 hPa Calm     70.8% 0 mm 56 W/m2
16:29 23.2 °C 17.9 °C 1011.7 hPa Calm     72.3% 0 mm 58 W/m2
16:34 23.1 °C 17.6 °C 1011.7 hPa Calm     71.4% 0 mm 47 W/m2
16:39 23 °C 17.6 °C 1011.7 hPa Calm     71.4% 0 mm 39 W/m2
16:44 22.9 °C 17.8 °C 1011.7 hPa Calm     73% 0 mm 32 W/m2
16:49 22.9 °C 17.8 °C 1011.7 hPa Calm     72.8% 0 mm 30 W/m2
16:54 22.8 °C 17.8 °C 1011.7 hPa Calm     73.2% 0 mm 32 W/m2
16:59 22.8 °C 17.8 °C 1011.7 hPa Calm     73.3% 0 mm 33 W/m2
17:04 22.8 °C 17.4 °C 1012.1 hPa Calm     72.1% 0 mm 40 W/m2
17:09 22.7 °C 17.7 °C 1012.1 hPa Calm     73.3% 0 mm 39 W/m2
17:14 22.7 °C 18 °C 1012.1 hPa Calm     75% 0 mm 25 W/m2
17:19 22.6 °C 17.9 °C 1012.1 hPa Calm     74.7% 0 mm 19 W/m2
17:24 22.5 °C 18.1 °C 1012.1 hPa Calm     76.2% 0 mm 19 W/m2
17:29 22.5 °C 18.4 °C 1012.1 hPa Calm     77.5% 0 mm 14 W/m2
17:34 22.3 °C 18.3 °C 1012.1 hPa North 0.2 km/h 3.2 km/h 77.8% 0 mm 9 W/m2
17:39 22.2 °C 18.2 °C 1012.1 hPa Calm   3.2 km/h 78.3% 0 mm 0 W/m2
17:44 22 °C 18.2 °C 1012.1 hPa Calm   3.2 km/h 79% 0 mm 0 W/m2
17:49 21.8 °C 18.2 °C 1012.1 hPa Calm   3.2 km/h 80.1% 0 mm 0 W/m2
17:54 21.6 °C 18.1 °C 1012.1 hPa Calm   3.2 km/h 80.5% 0 mm 0 W/m2
17:59 21.4 °C 18 °C 1012.1 hPa Calm   3.2 km/h 81% 0 mm 0 W/m2
18:04 21.2 °C 17.7 °C 1012.1 hPa Calm   3.2 km/h 80.6% 0 mm 0 W/m2
18:09 21.1 °C 17.8 °C 1012.1 hPa Calm     81.7% 0 mm 0 W/m2
18:14 20.9 °C 17.8 °C 1012.4 hPa Calm     82% 0 mm 0 W/m2
18:19 20.8 °C 17.6 °C 1012.4 hPa Calm     81.6% 0 mm 0 W/m2
18:24 20.7 °C 17.3 °C 1012.4 hPa Calm     81.2% 0 mm 0 W/m2
18:29 20.7 °C 17.6 °C 1012.4 hPa Calm     82.7% 0 mm 0 W/m2
18:34 20.6 °C 17.8 °C 1012.4 hPa Calm     84% 0 mm 0 W/m2
18:39 20.4 °C 17.7 °C 1012.4 hPa Calm     84% 0 mm 0 W/m2
18:44 20.4 °C 17.8 °C 1012.4 hPa Calm     85% 0 mm 0 W/m2
18:49 20.3 °C 17.9 °C 1012.4 hPa Calm     86% 0.25 mm 0 W/m2
18:54 20.2 °C 17.8 °C 1012.4 hPa Calm     86% 0.25 mm 0 W/m2
18:59 20.1 °C 17.9 °C 1012.4 hPa Calm     87% 0.25 mm 0 W/m2
19:04 20 °C 17.8 °C 1012.4 hPa Calm     87.2% 0.25 mm 0 W/m2
19:09 19.9 °C 17.9 °C 1012.4 hPa Calm     87.8% 0.25 mm 0 W/m2
19:14 19.9 °C 17.9 °C 1012.4 hPa North 0.2 km/h 3.2 km/h 88.1% 0.25 mm 0 W/m2
19:19 19.8 °C 17.9 °C 1012.4 hPa Calm   3.2 km/h 88.6% 0.25 mm 0 W/m2
19:24 19.7 °C 17.8 °C 1012.4 hPa Calm   3.2 km/h 89% 0.25 mm 0 W/m2
19:29 19.6 °C 17.8 °C 1012.4 hPa Calm   3.2 km/h 89% 0.25 mm 0 W/m2
19:34 19.6 °C 17.8 °C 1012.8 hPa North 0.5 km/h 6.4 km/h 89.7% 0.25 mm 0 W/m2
19:39 19.6 °C 17.9 °C 1012.8 hPa NNW 0.2 km/h 8 km/h 90% 0.25 mm 0 W/m2
19:44 19.5 °C 17.7 °C 1012.8 hPa NNW 0.3 km/h 8 km/h 89.3% 0.25 mm 0 W/m2
19:49 19.4 °C 17.7 °C 1013.1 hPa Calm   8 km/h 89.7% 0.25 mm 0 W/m2
19:54 19.3 °C 17.5 °C 1013.1 hPa Calm   8 km/h 89% 0.25 mm 0 W/m2
19:59 19.3 °C 17.4 °C 1013.1 hPa Calm   8 km/h 89% 0.25 mm 0 W/m2
20:09 19.1 °C 17.2 °C 1012.8 hPa Calm     89% 0.25 mm 0 W/m2
20:14 19 °C 17.2 °C 1012.8 hPa Calm     89% 0.25 mm 0 W/m2
20:19 18.9 °C 17.3 °C 1012.8 hPa Calm     89.9% 0.25 mm 0 W/m2
20:24 18.9 °C 17.3 °C 1012.8 hPa Calm     90% 0.25 mm 0 W/m2
20:29 18.9 °C 17.3 °C 1012.8 hPa NE 0.5 km/h 6.4 km/h 90% 0.25 mm 0 W/m2
20:34 18.9 °C 17.2 °C 1012.8 hPa Calm   6.4 km/h 90% 0.25 mm 0 W/m2
20:39 18.8 °C 17.1 °C 1012.8 hPa NE 0.2 km/h 6.4 km/h 90% 0 mm 0 W/m2
20:44 18.7 °C 17.2 °C 1012.8 hPa NE 0.2 km/h 6.4 km/h 90.7% 0 mm 0 W/m2
20:49 18.7 °C 17.2 °C 1012.8 hPa Calm   6.4 km/h 91% 0 mm 0 W/m2
20:54 18.6 °C 17.1 °C 1012.8 hPa Calm   6.4 km/h 91.2% 0 mm 0 W/m2
20:59 18.6 °C 17.1 °C 1012.8 hPa Calm   6.4 km/h 91% 0 mm 0 W/m2
21:04 18.5 °C 17 °C 1012.8 hPa Calm   6.4 km/h 91% 0 mm 0 W/m2
21:09 18.4 °C 17 °C 1012.8 hPa Calm     91% 0 mm 0 W/m2
21:14 18.4 °C 16.9 °C 1013.1 hPa Calm     91% 0 mm 0 W/m2
21:19 18.4 °C 16.9 °C 1013.1 hPa Calm     91% 0 mm 0 W/m2
21:24 18.4 °C 16.9 °C 1013.1 hPa Calm     91% 0 mm 0 W/m2
21:29 18.4 °C 16.9 °C 1013.1 hPa Calm     91% 0 mm 0 W/m2
21:34 18.3 °C 16.8 °C 1013.1 hPa Calm     91% 0 mm 0 W/m2
21:39 18.3 °C 16.8 °C 1013.1 hPa Calm     91% 0 mm 0 W/m2
21:44 18.3 °C 16.9 °C 1013.1 hPa Calm     91.2% 0 mm 0 W/m2
21:49 18.3 °C 16.9 °C 1013.1 hPa Calm     92% 0 mm 0 W/m2
21:54 18.3 °C 16.8 °C 1013.1 hPa Calm   1.6 km/h 91.3% 0 mm 0 W/m2
21:59 18.2 °C 16.9 °C 1013.1 hPa Calm   1.6 km/h 91.9% 0 mm 0 W/m2
22:04 18.2 °C 16.9 °C 1013.1 hPa Calm   1.6 km/h 92% 0 mm 0 W/m2
22:09 18.2 °C 16.9 °C 1013.1 hPa NE 0.3 km/h 4.8 km/h 92% 0 mm 0 W/m2
22:14 18.2 °C 16.9 °C 1013.1 hPa Calm   4.8 km/h 92% 0 mm 0 W/m2
22:19 18.2 °C 16.8 °C 1013.1 hPa Calm   4.8 km/h 92% 0 mm 0 W/m2
22:24 18.1 °C 16.8 °C 1013.1 hPa NW 0.6 km/h 8 km/h 92% 0 mm 0 W/m2
22:29 18 °C 16.7 °C 1013.1 hPa NNW 0.2 km/h 8 km/h 92% 0 mm 0 W/m2
22:34 17.9 °C 16.6 °C 1013.1 hPa NNW 0.2 km/h 8 km/h 92% 0 mm 0 W/m2
22:39 17.9 °C 16.6 °C 1013.1 hPa Calm   3.2 km/h 92% 0 mm 0 W/m2
22:44 17.8 °C 16.5 °C 1013.1 hPa NNW 0.2 km/h 3.2 km/h 92% 0 mm 0 W/m2
22:49 17.7 °C 16.4 °C 1013.1 hPa NNW 0.2 km/h 6.4 km/h 92% 0 mm 0 W/m2
22:54 17.7 °C 16.4 °C 1013.1 hPa NW 0.2 km/h 6.4 km/h 92% 0 mm 0 W/m2
22:59 17.6 °C 16.3 °C 1013.1 hPa Calm   6.4 km/h 92% 0 mm 0 W/m2
23:04 17.6 °C 16.3 °C 1013.1 hPa Calm   6.4 km/h 92% 0 mm 0 W/m2
23:09 17.6 °C 16.2 °C 1013.4 hPa Calm   1.6 km/h 92% 0 mm 0 W/m2
23:14 17.5 °C 16.2 °C 1013.1 hPa Calm   1.6 km/h 92% 0 mm 0 W/m2
23:19 17.4 °C 16.2 °C 1013.4 hPa Calm   1.6 km/h 92% 0 mm 0 W/m2
23:24 17.4 °C 16.2 °C 1013.4 hPa Calm   1.6 km/h 92.6% 0 mm 0 W/m2
23:29 17.4 °C 16.3 °C 1013.1 hPa Calm   1.6 km/h 93% 0 mm 0 W/m2
23:34 17.4 °C 16.3 °C 1013.1 hPa Calm   1.6 km/h 93% 0 mm 0 W/m2
23:39 17.4 °C 16.3 °C 1013.4 hPa Calm     93% 0 mm 0 W/m2
23:44 17.4 °C 16.3 °C 1013.4 hPa Calm     93% 0 mm 0 W/m2
23:49 17.4 °C 16.3 °C 1013.4 hPa Calm     93% 0.76 mm 0 W/m2
23:54 17.4 °C 16.3 °C 1013.1 hPa Calm   1.6 km/h 93% 0.76 mm 0 W/m2
23:59 17.4 °C 16.2 °C 1013.1 hPa Calm   1.6 km/h 93% 0.76 mm 0 W/m2
Hartford County Weather
Compliments of Weather Underground - 4 mb